Terminal Aerodrome Forecast
Issued by NWS Northern Indiana

Home | Current Version | Previous Version | Graphics & Text | Print | Product List | Glossary On
Versions: 1 2 3 4 5 6 7 8 9 10 11 12 13
434
FTUS43 KIWX 212332
TAFFWA
TAF
KFWA 212332Z 2200/2224 VRB03KT P6SM BKN250
      TEMPO 2210/2212 5SM BR
     FM221700 20007KT 6SM BR FEW045 BKN250=

USA.gov is the U.S. government's official web portal to all federal, state and local government web resources and services.